Time;durP1;ratioP1;P1;durP2;ratioP2;P2;SDS_P1;SDS_P2;PMS_P1;PMS_P2;Temp;Humidity;BMP_temperature;BMP_pressure;BME280_temperature;BME280_humidity;BME280_pressure;Samples;Min_cycle;Max_cycle;Signal;HPM_P1;HPM_P2
2024/02/05 00:00:44;;;;;;;5.15;4.65;;;;;;;;;;5041181;28;20383;-80
2024/02/05 00:03:10;;;;;;;5.50;4.63;;;;;;;;;;5041261;28;20881;-80
2024/02/05 00:05:36;;;;;;;5.10;4.70;;;;;;;;;;5041814;28;20387;-80
2024/02/05 00:08:05;;;;;;;5.40;4.90;;;;;;;;;;5041680;28;20937;-79
2024/02/05 00:10:31;;;;;;;5.55;4.85;;;;;;;;;;5041242;28;20414;-80
2024/02/05 00:12:57;;;;;;;5.15;4.60;;;;;;;;;;5040375;28;20375;-79
2024/02/05 00:15:23;;;;;;;5.63;4.70;;;;;;;;;;5040507;28;20919;-82
2024/02/05 00:17:49;;;;;;;5.90;4.47;;;;;;;;;;5040977;28;20371;-79
2024/02/05 00:20:15;;;;;;;4.90;4.50;;;;;;;;;;5041365;28;20390;-80
2024/02/05 00:22:42;;;;;;;6.25;4.63;;;;;;;;;;5041695;28;20410;-80
2024/02/05 00:25:09;;;;;;;4.93;4.53;;;;;;;;;;5041612;28;20395;-79
2024/02/05 00:27:35;;;;;;;4.75;4.32;;;;;;;;;;5040359;28;20429;-80
2024/02/05 00:30:01;;;;;;;6.60;4.60;;;;;;;;;;5041326;28;20407;-79
2024/02/05 00:32:27;;;;;;;5.10;4.60;;;;;;;;;;5041057;28;20433;-80
2024/02/05 00:34:56;;;;;;;4.45;4.05;;;;;;;;;;5040709;28;20738;-80
2024/02/05 00:37:24;;;;;;;4.88;4.47;;;;;;;;;;5041185;28;20379;-80
2024/02/05 00:39:50;;;;;;;5.30;4.80;;;;;;;;;;5041255;28;20394;-79
2024/02/05 00:42:16;;;;;;;5.18;4.68;;;;;;;;;;5040879;28;20387;-79
2024/02/05 00:44:42;;;;;;;5.30;4.80;;;;;;;;;;5041122;28;20414;-80
2024/02/05 00:47:08;;;;;;;6.17;4.53;;;;;;;;;;5040794;28;20882;-80
2024/02/05 00:49:34;;;;;;;4.22;3.83;;;;;;;;;;5040498;28;20422;-80
2024/02/05 00:52:00;;;;;;;5.45;4.35;;;;;;;;;;5041105;28;20386;-80
2024/02/05 00:54:26;;;;;;;4.93;4.30;;;;;;;;;;5040416;28;20383;-80
2024/02/05 00:56:52;;;;;;;4.82;4.32;;;;;;;;;;5040568;28;20379;-80
2024/02/05 00:59:18;;;;;;;5.40;4.90;;;;;;;;;;5040494;28;20387;-80
2024/02/05 01:01:45;;;;;;;4.95;4.47;;;;;;;;;;5040189;28;20390;-80
2024/02/05 01:04:11;;;;;;;4.93;4.53;;;;;;;;;;5040324;28;20453;-80
2024/02/05 01:06:39;;;;;;;4.97;4.53;;;;;;;;;;5040856;28;20379;-80
2024/02/05 01:09:09;;;;;;;5.13;4.65;;;;;;;;;;5040985;28;20386;-80
2024/02/05 01:11:35;;;;;;;5.03;4.63;;;;;;;;;;5040931;28;20407;-80
2024/02/05 01:14:01;;;;;;;5.53;4.97;;;;;;;;;;5040506;28;20850;-80
2024/02/05 01:16:27;;;;;;;5.50;4.97;;;;;;;;;;5039494;28;20725;-80
2024/02/05 01:18:53;;;;;;;5.68;5.13;;;;;;;;;;5040881;28;20418;-80
2024/02/05 01:21:19;;;;;;;5.28;4.80;;;;;;;;;;5040024;28;20385;-80
2024/02/05 01:23:46;;;;;;;4.97;4.57;;;;;;;;;;5040298;28;20430;-80
2024/02/05 01:26:12;;;;;;;5.57;4.88;;;;;;;;;;5040407;28;20745;-80
2024/02/05 01:28:38;;;;;;;5.00;4.50;;;;;;;;;;5040891;28;20391;-80
2024/02/05 01:31:06;;;;;;;5.32;4.82;;;;;;;;;;5040283;28;20403;-80
2024/02/05 01:33:32;;;;;;;4.65;4.25;;;;;;;;;;5040502;28;20379;-80
2024/02/05 01:35:59;;;;;;;5.55;4.95;;;;;;;;;;5039347;28;20387;-80
2024/02/05 01:38:24;;;;;;;5.13;4.70;;;;;;;;;;5039770;28;20458;-80
2024/02/05 01:40:50;;;;;;;5.78;5.22;;;;;;;;;;5040006;28;20816;-80
2024/02/05 01:43:17;;;;;;;5.40;4.68;;;;;;;;;;5039216;28;20390;-80
2024/02/05 01:45:43;;;;;;;6.05;4.68;;;;;;;;;;5039662;28;20391;-80
2024/02/05 01:48:10;;;;;;;5.43;4.93;;;;;;;;;;5039676;28;20473;-80
2024/02/05 01:50:38;;;;;;;6.65;5.28;;;;;;;;;;5040321;28;20415;-80
2024/02/05 01:53:04;;;;;;;7.22;5.28;;;;;;;;;;5039999;28;20387;-80
2024/02/05 01:55:32;;;;;;;5.47;4.97;;;;;;;;;;5039743;28;20386;-80
2024/02/05 01:57:58;;;;;;;6.18;5.50;;;;;;;;;;5039913;28;20391;-80
2024/02/05 02:00:25;;;;;;;5.10;4.60;;;;;;;;;;5040095;28;20865;-80
2024/02/05 02:02:51;;;;;;;6.20;5.40;;;;;;;;;;5039786;28;20478;-80
2024/02/05 02:05:18;;;;;;;7.00;5.80;;;;;;;;;;5039975;28;20441;-80
2024/02/05 02:07:45;;;;;;;6.43;5.83;;;;;;;;;;5038360;28;20476;-80
2024/02/05 02:10:11;;;;;;;5.97;5.40;;;;;;;;;;5038674;28;20434;-80
2024/02/05 02:12:38;;;;;;;6.30;5.13;;;;;;;;;;5039668;28;20872;-79
2024/02/05 02:15:04;;;;;;;6.05;4.95;;;;;;;;;;5038578;28;20372;-80
2024/02/05 02:17:32;;;;;;;5.80;4.88;;;;;;;;;;5038595;28;20406;-80
2024/02/05 02:19:58;;;;;;;6.05;5.47;;;;;;;;;;5038146;28;20379;-80
2024/02/05 02:22:39;;;;;;;7.87;5.70;;;;;;;;;;5037894;28;20379;-80
2024/02/05 02:25:09;;;;;;;6.55;5.55;;;;;;;;;;5038909;28;20406;-79
2024/02/05 02:27:35;;;;;;;7.00;5.82;;;;;;;;;;5038358;28;20741;-80
2024/02/05 02:30:02;;;;;;;6.03;5.50;;;;;;;;;;5039000;28;20403;-80
2024/02/05 02:32:43;;;;;;;7.30;5.18;;;;;;;;;;5038087;28;21189;-79
2024/02/05 02:35:14;;;;;;;6.87;5.30;;;;;;;;;;5039040;28;20833;-80
2024/02/05 02:37:44;;;;;;;9.18;5.38;;;;;;;;;;5038925;28;20465;-80
2024/02/05 02:40:13;;;;;;;7.78;5.70;;;;;;;;;;5038910;28;20387;-80
2024/02/05 02:42:40;;;;;;;6.75;5.55;;;;;;;;;;5038389;28;20391;-80
2024/02/05 02:45:07;;;;;;;8.65;5.47;;;;;;;;;;5038482;28;20754;-80
2024/02/05 02:47:33;;;;;;;7.75;5.57;;;;;;;;;;5039291;28;21005;-79
2024/02/05 02:49:59;;;;;;;6.05;5.45;;;;;;;;;;5034422;28;20450;-79
2024/02/05 02:52:25;;;;;;;7.50;5.35;;;;;;;;;;5037903;28;20386;-80
2024/02/05 02:54:51;;;;;;;6.57;5.30;;;;;;;;;;5038526;28;20379;-80
2024/02/05 02:57:17;;;;;;;8.27;5.95;;;;;;;;;;5036903;28;20407;-80
2024/02/05 02:59:43;;;;;;;6.18;5.50;;;;;;;;;;5039023;28;20386;-80
2024/02/05 03:02:09;;;;;;;6.30;5.40;;;;;;;;;;5034583;28;20908;-80
2024/02/05 03:04:35;;;;;;;8.10;5.82;;;;;;;;;;5039157;28;20407;-80
2024/02/05 03:07:01;;;;;;;7.77;5.33;;;;;;;;;;5039603;28;20809;-80
2024/02/05 03:09:27;;;;;;;6.78;5.78;;;;;;;;;;5039460;28;20383;-80
2024/02/05 03:11:53;;;;;;;6.93;6.10;;;;;;;;;;5038596;28;20478;-79
2024/02/05 03:14:23;;;;;;;8.10;6.32;;;;;;;;;;5038672;28;20854;-79
2024/02/05 03:16:49;;;;;;;7.35;6.20;;;;;;;;;;5038157;28;20718;-79
2024/02/05 03:19:15;;;;;;;8.82;6.22;;;;;;;;;;5038570;28;20411;-80
2024/02/05 03:21:41;;;;;;;6.85;5.80;;;;;;;;;;5038127;28;20714;-80
2024/02/05 03:24:07;;;;;;;5.70;5.10;;;;;;;;;;5037359;28;20470;-80
2024/02/05 03:26:33;;;;;;;5.93;5.33;;;;;;;;;;5039075;28;20383;-79
2024/02/05 03:28:59;;;;;;;7.95;5.38;;;;;;;;;;5042203;28;20387;-80
2024/02/05 03:31:26;;;;;;;5.80;5.20;;;;;;;;;;5042037;28;20464;-80
2024/02/05 03:33:52;;;;;;;8.48;5.95;;;;;;;;;;5042319;28;20461;-80
2024/02/05 03:36:18;;;;;;;5.70;4.65;;;;;;;;;;5040306;28;20379;-80
2024/02/05 03:38:44;;;;;;;6.10;5.22;;;;;;;;;;5041105;28;20857;-80
2024/02/05 03:41:10;;;;;;;6.20;4.73;;;;;;;;;;5042116;28;20387;-80
2024/02/05 03:43:36;;;;;;;5.63;5.07;;;;;;;;;;5039904;28;20470;-79
2024/02/05 03:46:02;;;;;;;5.00;4.50;;;;;;;;;;5041743;28;20852;-79
2024/02/05 03:48:28;;;;;;;5.63;5.00;;;;;;;;;;5041286;28;20386;-80
2024/02/05 03:50:54;;;;;;;5.97;5.38;;;;;;;;;;5040783;28;20431;-80
2024/02/05 03:53:20;;;;;;;6.07;4.82;;;;;;;;;;5041740;28;20375;-80
2024/02/05 03:55:47;;;;;;;5.63;5.03;;;;;;;;;;5040740;28;20411;-80
2024/02/05 03:58:13;;;;;;;6.90;5.65;;;;;;;;;;5042527;28;20437;-80
2024/02/05 04:00:39;;;;;;;7.20;5.05;;;;;;;;;;5041768;28;20383;-80
2024/02/05 04:03:06;;;;;;;5.43;4.93;;;;;;;;;;5042499;28;20437;-80
2024/02/05 04:05:32;;;;;;;8.33;5.03;;;;;;;;;;5041583;28;20425;-79
2024/02/05 04:07:58;;;;;;;5.70;5.07;;;;;;;;;;5041332;28;20415;-80
2024/02/05 04:10:24;;;;;;;5.25;4.75;;;;;;;;;;5042233;28;20449;-80
2024/02/05 04:12:50;;;;;;;6.82;4.78;;;;;;;;;;5038778;28;20395;-80
2024/02/05 04:15:16;;;;;;;4.80;4.40;;;;;;;;;;5040765;28;20866;-80
2024/02/05 04:17:42;;;;;;;5.45;4.95;;;;;;;;;;5040684;28;20484;-80
2024/02/05 04:20:09;;;;;;;5.60;5.03;;;;;;;;;;5040030;28;20906;-79
2024/02/05 04:22:35;;;;;;;5.47;4.97;;;;;;;;;;5041500;28;20457;-80
2024/02/05 04:25:01;;;;;;;5.85;4.47;;;;;;;;;;5041245;28;20383;-80
2024/02/05 04:27:27;;;;;;;5.05;4.57;;;;;;;;;;5041097;28;20426;-80
2024/02/05 04:29:55;;;;;;;5.50;4.57;;;;;;;;;;5041388;28;20415;-80
2024/02/05 04:32:22;;;;;;;5.93;4.43;;;;;;;;;;5038622;28;20447;-80
2024/02/05 04:34:48;;;;;;;5.68;4.75;;;;;;;;;;5033372;28;21065;-80
2024/02/05 04:37:14;;;;;;;7.68;4.88;;;;;;;;;;5037030;28;20379;-80
2024/02/05 04:39:40;;;;;;;6.28;4.63;;;;;;;;;;5039242;28;20395;-79
2024/02/05 04:42:06;;;;;;;6.20;4.40;;;;;;;;;;5017539;28;20373;-80
2024/02/05 04:44:32;;;;;;;4.95;4.32;;;;;;;;;;5017693;28;20715;-81
2024/02/05 04:46:58;;;;;;;4.80;4.40;;;;;;;;;;5017328;28;20405;-80
2024/02/05 04:49:24;;;;;;;6.60;4.77;;;;;;;;;;5017427;28;21010;-80
2024/02/05 04:51:50;;;;;;;6.38;4.80;;;;;;;;;;5017328;28;20381;-81
2024/02/05 04:54:16;;;;;;;6.63;4.57;;;;;;;;;;5018408;28;20766;-80
2024/02/05 04:56:42;;;;;;;5.78;4.93;;;;;;;;;;5017530;28;20385;-80
2024/02/05 04:59:08;;;;;;;4.82;4.20;;;;;;;;;;5017838;28;20391;-80
2024/02/05 05:01:34;;;;;;;5.30;4.03;;;;;;;;;;5000198;28;20468;-80
2024/02/05 05:04:00;;;;;;;8.50;4.40;;;;;;;;;;5017629;28;20419;-80
2024/02/05 05:06:26;;;;;;;5.77;4.03;;;;;;;;;;5017012;28;20726;-80
2024/02/05 05:08:52;;;;;;;5.95;3.95;;;;;;;;;;5017124;28;20388;-80
2024/02/05 05:11:22;;;;;;;3.85;3.55;;;;;;;;;;5017195;28;20428;-80
2024/02/05 05:13:49;;;;;;;4.77;3.87;;;;;;;;;;5016994;28;20498;-80
2024/02/05 05:16:16;;;;;;;5.20;3.60;;;;;;;;;;5016947;28;20373;-82
2024/02/05 05:18:42;;;;;;;4.78;3.63;;;;;;;;;;4999876;28;20400;-80
2024/02/05 05:21:08;;;;;;;4.38;3.50;;;;;;;;;;5017323;28;20380;-80
2024/02/05 05:23:34;;;;;;;4.05;3.65;;;;;;;;;;5018585;28;20476;-80
2024/02/05 05:26:00;;;;;;;5.18;3.45;;;;;;;;;;5019199;28;20397;-80
2024/02/05 05:28:26;;;;;;;3.97;3.40;;;;;;;;;;5019354;28;20731;-80
2024/02/05 05:30:52;;;;;;;7.35;3.28;;;;;;;;;;5019791;28;20409;-80
2024/02/05 05:33:18;;;;;;;4.47;3.70;;;;;;;;;;5019045;28;20383;-80
2024/02/05 05:35:44;;;;;;;3.72;3.30;;;;;;;;;;5018704;28;20859;-79
2024/02/05 05:38:10;;;;;;;7.68;4.15;;;;;;;;;;5018183;28;20468;-80
2024/02/05 05:40:36;;;;;;;4.80;4.15;;;;;;;;;;5018494;28;20888;-79
2024/02/05 05:43:02;;;;;;;24.30;13.30;;;;;;;;;;5018816;28;20476;-80
2024/02/05 05:45:29;;;;;;;9.47;6.93;;;;;;;;;;5018471;28;20408;-80
2024/02/05 05:47:55;;;;;;;49.57;23.67;;;;;;;;;;5018554;28;20431;-80
2024/02/05 05:50:21;;;;;;;24.35;13.65;;;;;;;;;;5016375;28;20439;-80
2024/02/05 05:52:47;;;;;;;12.65;7.10;;;;;;;;;;5017262;28;20400;-80
2024/02/05 05:55:13;;;;;;;6.78;5.45;;;;;;;;;;5016770;28;20396;-80
2024/02/05 05:57:39;;;;;;;7.57;6.05;;;;;;;;;;4999554;28;20396;-80
2024/02/05 06:00:06;;;;;;;13.27;9.20;;;;;;;;;;5018178;28;20381;-80
2024/02/05 06:02:32;;;;;;;10.23;6.75;;;;;;;;;;5018314;28;20743;-80
2024/02/05 06:04:58;;;;;;;13.52;9.32;;;;;;;;;;5017424;28;20413;-80
2024/02/05 06:07:24;;;;;;;11.38;8.50;;;;;;;;;;5016556;28;20393;-80
2024/02/05 06:09:50;;;;;;;8.43;6.18;;;;;;;;;;5016532;28;20424;-79
2024/02/05 06:12:16;;;;;;;6.22;4.95;;;;;;;;;;5021930;28;20402;-79
2024/02/05 06:14:44;;;;;;;6.65;5.00;;;;;;;;;;5036067;28;20382;-79
2024/02/05 06:17:10;;;;;;;6.13;4.40;;;;;;;;;;5036546;28;20764;-79
2024/02/05 06:19:36;;;;;;;5.47;4.07;;;;;;;;;;5035668;28;20384;-79
2024/02/05 06:22:02;;;;;;;7.32;3.78;;;;;;;;;;5035909;28;20398;-80
2024/02/05 06:24:29;;;;;;;5.55;4.00;;;;;;;;;;5035628;28;20375;-80
2024/02/05 06:26:55;;;;;;;4.43;3.75;;;;;;;;;;5035994;28;20434;-80
2024/02/05 06:29:21;;;;;;;5.82;4.55;;;;;;;;;;5035447;28;20387;-80
2024/02/05 06:31:47;;;;;;;5.47;4.68;;;;;;;;;;5035429;28;20890;-80
2024/02/05 06:34:14;;;;;;;6.70;4.70;;;;;;;;;;5035884;28;20437;-79
2024/02/05 06:36:40;;;;;;;14.25;11.80;;;;;;;;;;5035364;28;20394;-79
2024/02/05 06:39:06;;;;;;;7.10;6.38;;;;;;;;;;5035728;28;20375;-80
2024/02/05 06:41:33;;;;;;;7.28;6.00;;;;;;;;;;5035536;28;20868;-80
2024/02/05 06:43:59;;;;;;;7.67;6.77;;;;;;;;;;5036095;28;20379;-79
2024/02/05 06:46:26;;;;;;;7.97;5.55;;;;;;;;;;5037023;28;20702;-79
2024/02/05 06:48:52;;;;;;;7.18;5.70;;;;;;;;;;5037071;28;20875;-81
2024/02/05 06:51:17;;;;;;;6.55;5.45;;;;;;;;;;5034894;28;20411;-80
2024/02/05 06:53:44;;;;;;;6.00;4.60;;;;;;;;;;5035103;28;20733;-83
2024/02/05 06:56:10;;;;;;;7.18;5.38;;;;;;;;;;5036242;28;20379;-81
2024/02/05 06:58:36;;;;;;;11.57;7.10;;;;;;;;;;5040116;28;20375;-81
2024/02/05 07:01:02;;;;;;;5.18;4.68;;;;;;;;;;5041662;28;20387;-81
2024/02/05 07:03:28;;;;;;;5.47;4.00;;;;;;;;;;5044996;28;20504;-81
2024/02/05 07:05:55;;;;;;;4.32;3.40;;;;;;;;;;5044502;28;20464;-81
2024/02/05 07:08:21;;;;;;;3.17;2.75;;;;;;;;;;5044709;28;20383;-81
2024/02/05 07:10:46;;;;;;;4.07;3.00;;;;;;;;;;5044655;28;20399;-81
2024/02/05 07:13:13;;;;;;;4.47;3.28;;;;;;;;;;5045100;28;20857;-81
2024/02/05 07:15:39;;;;;;;5.53;3.20;;;;;;;;;;5044403;28;20391;-81
2024/02/05 07:18:05;;;;;;;3.75;3.20;;;;;;;;;;5044582;28;20371;-81
2024/02/05 07:20:31;;;;;;;5.93;3.72;;;;;;;;;;5044587;28;20850;-81
2024/02/05 07:22:57;;;;;;;6.20;4.38;;;;;;;;;;5043997;28;20466;-81
2024/02/05 07:25:25;;;;;;;4.50;3.60;;;;;;;;;;5043658;28;20382;-81
2024/02/05 07:27:51;;;;;;;4.05;3.13;;;;;;;;;;5043322;28;20386;-81
2024/02/05 07:30:19;;;;;;;4.40;3.25;;;;;;;;;;5041913;28;20758;-81
2024/02/05 07:32:45;;;;;;;4.07;2.97;;;;;;;;;;5043695;28;20379;-81
2024/02/05 07:35:11;;;;;;;7.78;3.50;;;;;;;;;;5043129;28;20382;-81
2024/02/05 07:37:37;;;;;;;5.88;3.17;;;;;;;;;;5042831;28;20406;-81
2024/02/05 07:40:04;;;;;;;3.75;3.40;;;;;;;;;;5043560;28;20741;-82
2024/02/05 07:42:30;;;;;;;4.47;3.42;;;;;;;;;;5043938;28;20402;-81
2024/02/05 07:44:56;;;;;;;5.60;3.77;;;;;;;;;;5044625;28;20794;-81
2024/02/05 07:47:22;;;;;;;4.15;3.15;;;;;;;;;;5043013;28;20383;-81
2024/02/05 07:49:48;;;;;;;4.72;3.20;;;;;;;;;;5041843;28;20445;-81
2024/02/05 07:52:15;;;;;;;3.90;3.40;;;;;;;;;;5042535;28;20383;-81
2024/02/05 07:54:41;;;;;;;5.82;3.67;;;;;;;;;;5042631;28;20384;-81
2024/02/05 07:57:07;;;;;;;4.72;3.97;;;;;;;;;;5041855;28;20862;-81
2024/02/05 07:59:33;;;;;;;6.90;4.03;;;;;;;;;;5041019;28;20382;-81
2024/02/05 08:01:58;;;;;;;5.57;4.00;;;;;;;;;;5039264;28;20740;-81
2024/02/05 08:04:24;;;;;;;7.33;5.33;;;;;;;;;;5038977;28;20410;-81
2024/02/05 08:06:50;;;;;;;7.63;6.80;;;;;;;;;;5039664;28;20439;-82
2024/02/05 08:09:16;;;;;;;5.93;5.30;;;;;;;;;;5039492;28;20382;-81
2024/02/05 08:11:44;;;;;;;7.55;4.30;;;;;;;;;;5039987;28;20734;-81
2024/02/05 08:14:10;;;;;;;9.32;4.20;;;;;;;;;;5039715;28;20469;-81
2024/02/05 08:16:39;;;;;;;4.82;4.03;;;;;;;;;;5042399;28;20418;-81
2024/02/05 08:19:05;;;;;;;6.78;4.30;;;;;;;;;;5041120;28;20460;-81
2024/02/05 08:21:31;;;;;;;4.38;3.88;;;;;;;;;;5040886;28;20383;-81
2024/02/05 08:23:59;;;;;;;5.65;3.95;;;;;;;;;;5040616;28;20469;-82
2024/02/05 08:26:25;;;;;;;5.27;3.87;;;;;;;;;;5040403;28;20390;-81
2024/02/05 08:28:50;;;;;;;5.57;3.60;;;;;;;;;;5040351;28;20391;-81
2024/02/05 08:31:17;;;;;;;5.50;3.60;;;;;;;;;;5040082;28;20796;-81
2024/02/05 08:33:43;;;;;;;5.82;3.83;;;;;;;;;;5040741;28;20406;-81
2024/02/05 08:36:09;;;;;;;5.57;4.00;;;;;;;;;;5039949;28;20375;-81
2024/02/05 08:38:35;;;;;;;6.60;3.72;;;;;;;;;;5039972;28;20387;-81
2024/02/05 08:41:01;;;;;;;4.72;3.70;;;;;;;;;;5040097;28;20394;-82
2024/02/05 08:43:27;;;;;;;4.40;3.33;;;;;;;;;;5039771;28;20382;-81
2024/02/05 08:45:53;;;;;;;5.43;4.90;;;;;;;;;;5039253;28;20428;-81
2024/02/05 08:48:19;;;;;;;4.10;3.20;;;;;;;;;;5039538;28;20390;-81
2024/02/05 08:50:45;;;;;;;5.05;3.10;;;;;;;;;;5039390;28;20819;-81
2024/02/05 08:53:11;;;;;;;4.47;3.00;;;;;;;;;;5040984;28;20387;-81
2024/02/05 08:55:38;;;;;;;3.47;3.10;;;;;;;;;;5040204;28;20429;-81
2024/02/05 08:58:04;;;;;;;4.73;2.90;;;;;;;;;;5038634;28;20483;-81
2024/02/05 09:00:30;;;;;;;5.65;2.90;;;;;;;;;;5038964;28;20390;-81
2024/02/05 09:02:56;;;;;;;3.87;3.27;;;;;;;;;;5037858;28;20837;-81
2024/02/05 09:05:23;;;;;;;3.97;2.80;;;;;;;;;;5037876;28;20467;-81
2024/02/05 09:07:50;;;;;;;3.40;2.60;;;;;;;;;;5038170;28;20474;-81
2024/02/05 09:10:16;;;;;;;4.32;2.70;;;;;;;;;;5037527;28;20407;-82
2024/02/05 09:12:42;;;;;;;3.67;2.50;;;;;;;;;;5037317;28;20379;-81
2024/02/05 09:15:08;;;;;;;3.95;2.70;;;;;;;;;;5037644;28;20454;-81
2024/02/05 09:17:34;;;;;;;3.72;2.72;;;;;;;;;;5037741;28;20838;-80
2024/02/05 09:20:00;;;;;;;3.28;2.67;;;;;;;;;;5037028;28;20405;-81
2024/02/05 09:22:26;;;;;;;4.70;2.70;;;;;;;;;;5037245;28;20383;-81
2024/02/05 09:24:52;;;;;;;5.57;2.83;;;;;;;;;;5037764;28;20780;-81
2024/02/05 09:27:19;;;;;;;4.57;2.80;;;;;;;;;;5037976;28;20382;-81
2024/02/05 09:29:45;;;;;;;2.65;2.42;;;;;;;;;;5038150;28;20387;-81
2024/02/05 09:32:11;;;;;;;4.57;2.05;;;;;;;;;;5037041;28;20394;-81
2024/02/05 09:34:37;;;;;;;2.72;2.30;;;;;;;;;;5037191;28;20853;-81
2024/02/05 09:37:04;;;;;;;2.25;2.00;;;;;;;;;;5037094;28;22125;-81
2024/02/05 09:39:30;;;;;;;3.73;2.33;;;;;;;;;;5037251;28;20447;-81
2024/02/05 09:41:59;;;;;;;3.38;2.17;;;;;;;;;;5036507;28;20486;-81
2024/02/05 09:44:27;;;;;;;2.72;2.30;;;;;;;;;;5036578;28;20415;-80
2024/02/05 09:46:55;;;;;;;3.50;2.30;;;;;;;;;;5036914;28;20383;-81
2024/02/05 09:49:21;;;;;;;2.83;2.10;;;;;;;;;;5038235;28;20383;-80
2024/02/05 09:51:48;;;;;;;3.00;2.30;;;;;;;;;;5037440;28;20482;-80
2024/02/05 09:54:17;;;;;;;2.42;1.90;;;;;;;;;;5037014;28;20466;-80
2024/02/05 09:56:43;;;;;;;2.20;2.00;;;;;;;;;;5037738;28;20402;-80
2024/02/05 09:59:09;;;;;;;3.45;1.80;;;;;;;;;;5038692;28;20534;-79
2024/02/05 10:01:35;;;;;;;2.60;2.30;;;;;;;;;;5037688;28;20385;-80
2024/02/05 10:04:03;;;;;;;2.10;1.90;;;;;;;;;;5036001;28;20411;-80
2024/02/05 10:06:33;;;;;;;2.75;1.92;;;;;;;;;;5036319;28;20379;-80
2024/02/05 10:09:04;;;;;;;2.50;1.80;;;;;;;;;;5036289;28;20479;-80
2024/02/05 10:11:31;;;;;;;2.43;2.00;;;;;;;;;;5037104;28;20469;-80
2024/02/05 10:13:57;;;;;;;2.88;2.25;;;;;;;;;;5036056;28;20386;-80
2024/02/05 10:16:24;;;;;;;2.35;2.10;;;;;;;;;;5036245;28;20383;-81
2024/02/05 10:18:50;;;;;;;2.33;1.88;;;;;;;;;;5036165;28;20391;-80
2024/02/05 10:21:19;;;;;;;2.92;1.88;;;;;;;;;;5035840;28;20391;-81
2024/02/05 10:23:52;;;;;;;3.50;2.05;;;;;;;;;;5035703;28;20450;-80
2024/02/05 10:26:18;;;;;;;3.20;2.13;;;;;;;;;;5035920;28;20517;-80
2024/02/05 10:28:44;;;;;;;3.38;2.60;;;;;;;;;;5037074;28;20379;-80
2024/02/05 10:31:10;;;;;;;3.30;2.10;;;;;;;;;;5036569;28;20788;-80
2024/02/05 10:33:38;;;;;;;2.85;2.20;;;;;;;;;;5036551;28;20441;-80
2024/02/05 10:36:04;;;;;;;2.90;2.10;;;;;;;;;;5037291;28;20703;-81
2024/02/05 10:38:34;;;;;;;2.88;2.25;;;;;;;;;;5036586;28;20834;-80
2024/02/05 10:41:00;;;;;;;2.33;1.92;;;;;;;;;;5036562;28;20406;-80
2024/02/05 10:43:27;;;;;;;3.77;2.00;;;;;;;;;;5036677;28;20394;-80
2024/02/05 10:46:00;;;;;;;3.17;1.92;;;;;;;;;;5036508;28;20388;-80
2024/02/05 10:48:26;;;;;;;2.28;1.90;;;;;;;;;;5037020;28;20430;-80
2024/02/05 10:50:52;;;;;;;2.63;1.88;;;;;;;;;;5037297;28;20896;-80
2024/02/05 10:53:19;;;;;;;2.53;1.98;;;;;;;;;;5036825;28;20383;-80
2024/02/05 10:55:45;;;;;;;2.22;1.70;;;;;;;;;;5036971;28;21116;-80
2024/02/05 10:58:13;;;;;;;4.03;1.90;;;;;;;;;;5036929;28;20446;-80
2024/02/05 11:00:40;;;;;;;2.30;1.70;;;;;;;;;;5036520;28;20379;-80
2024/02/05 11:03:07;;;;;;;3.97;2.00;;;;;;;;;;5035593;28;20411;-80
2024/02/05 11:05:33;;;;;;;3.25;1.90;;;;;;;;;;5036007;28;20768;-80
2024/02/05 11:08:06;;;;;;;1.88;1.58;;;;;;;;;;5036100;28;20446;-81
2024/02/05 11:10:33;;;;;;;2.22;1.70;;;;;;;;;;5035981;28;20418;-80
2024/02/05 11:13:00;;;;;;;2.65;2.00;;;;;;;;;;5034711;28;20469;-80
2024/02/05 11:15:30;;;;;;;3.30;2.65;;;;;;;;;;5035252;28;20714;-80
2024/02/05 11:17:57;;;;;;;4.47;2.20;;;;;;;;;;5035106;28;20375;-81
2024/02/05 11:20:25;;;;;;;3.10;1.53;;;;;;;;;;5035585;28;20379;-80
2024/02/05 11:22:51;;;;;;;2.58;1.60;;;;;;;;;;5034882;28;20391;-81
2024/02/05 11:25:18;;;;;;;3.42;1.70;;;;;;;;;;5035922;28;20425;-81
2024/02/05 11:27:44;;;;;;;3.20;1.65;;;;;;;;;;5035058;28;20757;-81
2024/02/05 11:30:15;;;;;;;3.83;1.98;;;;;;;;;;5034741;28;20407;-81
2024/02/05 11:32:41;;;;;;;2.97;1.77;;;;;;;;;;5035160;28;20410;-81
2024/02/05 11:35:16;;;;;;;2.63;1.60;;;;;;;;;;5035097;28;20853;-81
2024/02/05 11:37:43;;;;;;;3.63;2.05;;;;;;;;;;5034351;28;20375;-81
2024/02/05 11:40:22;;;;;;;2.95;1.90;;;;;;;;;;5034647;28;20387;-81
2024/02/05 11:42:48;;;;;;;4.00;1.60;;;;;;;;;;5036068;28;20504;-81
2024/02/05 11:45:14;;;;;;;2.97;1.48;;;;;;;;;;5034123;28;20383;-81
2024/02/05 11:47:40;;;;;;;3.45;1.48;;;;;;;;;;5036738;28;20941;-81
2024/02/05 11:50:07;;;;;;;4.07;1.60;;;;;;;;;;5037785;28;20402;-81
2024/02/05 11:52:38;;;;;;;4.97;1.90;;;;;;;;;;5037834;28;20492;-81
2024/02/05 11:55:05;;;;;;;2.73;1.70;;;;;;;;;;5036563;28;20375;-81
2024/02/05 11:57:31;;;;;;;3.30;1.70;;;;;;;;;;5037190;28;20869;-81
2024/02/05 11:59:57;;;;;;;3.95;2.17;;;;;;;;;;5037040;28;20398;-81
2024/02/05 12:02:23;;;;;;;4.15;1.73;;;;;;;;;;5037816;28;20402;-81
2024/02/05 12:04:49;;;;;;;3.90;1.83;;;;;;;;;;5037630;28;20482;-81
2024/02/05 12:07:16;;;;;;;2.75;1.50;;;;;;;;;;5037322;28;20446;-81
2024/02/05 12:09:42;;;;;;;4.93;1.77;;;;;;;;;;5038156;28;20445;-81
2024/02/05 12:12:08;;;;;;;3.93;1.83;;;;;;;;;;5037474;28;20462;-81
2024/02/05 12:14:35;;;;;;;3.35;1.70;;;;;;;;;;5037484;28;20387;-81
2024/02/05 12:17:09;;;;;;;2.63;1.70;;;;;;;;;;5037796;28;20383;-81
2024/02/05 12:19:35;;;;;;;3.33;1.48;;;;;;;;;;5037476;28;20383;-81
2024/02/05 12:22:01;;;;;;;2.63;1.50;;;;;;;;;;5037304;28;20406;-81
2024/02/05 12:24:28;;;;;;;5.43;1.70;;;;;;;;;;5036213;28;20434;-80
2024/02/05 12:26:54;;;;;;;2.65;1.30;;;;;;;;;;5037919;28;21001;-81
2024/02/05 12:29:24;;;;;;;3.42;1.65;;;;;;;;;;5038581;28;20474;-80
2024/02/05 12:31:51;;;;;;;4.10;1.60;;;;;;;;;;5037921;28;20804;-79
2024/02/05 12:34:18;;;;;;;2.83;1.50;;;;;;;;;;5038006;28;20384;-82
2024/02/05 12:36:45;;;;;;;5.53;1.70;;;;;;;;;;5036843;28;20380;-80
2024/02/05 12:39:14;;;;;;;4.78;1.50;;;;;;;;;;5036465;28;20411;-79
2024/02/05 12:41:40;;;;;;;2.47;1.50;;;;;;;;;;5037314;28;20409;-79
2024/02/05 12:44:08;;;;;;;4.40;1.60;;;;;;;;;;5035387;28;20897;-79
2024/02/05 12:46:34;;;;;;;3.50;1.70;;;;;;;;;;5037386;28;20876;-81
2024/02/05 12:49:00;;;;;;;3.70;1.33;;;;;;;;;;5036615;28;20383;-81
2024/02/05 12:51:26;;;;;;;3.85;2.05;;;;;;;;;;5038916;28;20498;-81
2024/02/05 12:53:52;;;;;;;3.38;1.85;;;;;;;;;;5036872;28;20865;-81
2024/02/05 12:56:18;;;;;;;3.73;1.70;;;;;;;;;;5038401;28;20462;-81
2024/02/05 12:58:44;;;;;;;4.10;1.55;;;;;;;;;;5037611;28;20398;-81
2024/02/05 13:01:10;;;;;;;5.45;1.40;;;;;;;;;;5038156;28;20394;-81
2024/02/05 13:03:39;;;;;;;5.53;1.83;;;;;;;;;;5036536;28;20486;-79
2024/02/05 13:06:05;;;;;;;6.70;1.90;;;;;;;;;;5038178;28;20390;-81
2024/02/05 13:08:31;;;;;;;4.78;1.50;;;;;;;;;;5038122;28;20379;-81
2024/02/05 13:11:00;;;;;;;3.20;1.42;;;;;;;;;;5038233;28;20410;-80
2024/02/05 13:13:27;;;;;;;4.55;1.60;;;;;;;;;;5038279;28;20379;-80
2024/02/05 13:15:53;;;;;;;3.10;1.60;;;;;;;;;;5038455;28;20415;-81
2024/02/05 13:18:19;;;;;;;5.40;1.77;;;;;;;;;;5038641;28;20402;-80
2024/02/05 13:20:45;;;;;;;6.28;1.98;;;;;;;;;;5036216;28;20391;-79
2024/02/05 13:23:14;;;;;;;3.47;1.77;;;;;;;;;;5037750;28;20383;-81
2024/02/05 13:25:40;;;;;;;6.10;2.25;;;;;;;;;;5038156;28;20503;-82
2024/02/05 13:28:06;;;;;;;7.95;3.10;;;;;;;;;;5037639;28;20896;-81
2024/02/05 13:30:32;;;;;;;5.90;2.72;;;;;;;;;;5037510;28;20407;-81
2024/02/05 13:32:58;;;;;;;4.90;2.05;;;;;;;;;;5037884;28;20378;-81
2024/02/05 13:35:24;;;;;;;5.43;2.67;;;;;;;;;;5037364;28;20383;-81
2024/02/05 13:37:50;;;;;;;5.47;2.63;;;;;;;;;;5037684;28;20395;-79
2024/02/05 13:40:16;;;;;;;7.30;2.38;;;;;;;;;;5037932;28;20414;-81
2024/02/05 13:42:46;;;;;;;5.70;2.50;;;;;;;;;;5037349;28;20438;-82
2024/02/05 13:45:12;;;;;;;5.70;1.95;;;;;;;;;;5036896;28;20489;-81
2024/02/05 13:47:38;;;;;;;4.85;1.80;;;;;;;;;;5036947;28;20418;-81
2024/02/05 13:50:07;;;;;;;8.27;2.20;;;;;;;;;;5037322;28;20429;-81
2024/02/05 13:52:33;;;;;;;6.97;2.47;;;;;;;;;;5037358;28;20387;-82
2024/02/05 13:54:59;;;;;;;7.22;2.63;;;;;;;;;;5037526;28;20382;-80
2024/02/05 13:57:25;;;;;;;6.40;2.13;;;;;;;;;;5037717;28;20783;-81
2024/02/05 13:59:51;;;;;;;6.75;2.28;;;;;;;;;;5036439;28;20387;-81
2024/02/05 14:02:17;;;;;;;4.82;2.30;;;;;;;;;;5037104;28;20934;-81
2024/02/05 14:04:49;;;;;;;7.03;2.40;;;;;;;;;;5036579;28;20415;-81
2024/02/05 14:07:15;;;;;;;8.43;2.13;;;;;;;;;;5035039;28;20505;-81
2024/02/05 14:09:41;;;;;;;5.57;2.10;;;;;;;;;;5037882;28;20382;-81
2024/02/05 14:12:07;;;;;;;5.47;1.88;;;;;;;;;;5036753;28;20498;-81
2024/02/05 14:14:35;;;;;;;6.35;2.00;;;;;;;;;;5037756;28;20420;-81
2024/02/05 14:17:03;;;;;;;7.75;1.88;;;;;;;;;;5036969;28;20849;-81
2024/02/05 14:19:29;;;;;;;5.97;2.20;;;;;;;;;;5037466;28;20383;-82
2024/02/05 14:21:55;;;;;;;5.93;2.10;;;;;;;;;;5037208;28;20805;-82
2024/02/05 14:24:22;;;;;;;5.88;2.05;;;;;;;;;;5037255;28;20430;-81
2024/02/05 14:26:48;;;;;;;6.35;2.00;;;;;;;;;;5036739;28;20391;-81
2024/02/05 14:29:14;;;;;;;6.40;1.90;;;;;;;;;;5037022;28;20391;-81
2024/02/05 14:31:40;;;;;;;5.35;2.03;;;;;;;;;;5036492;28;20476;-81
2024/02/05 14:34:06;;;;;;;6.70;2.35;;;;;;;;;;5036678;28;20378;-81
2024/02/05 14:36:32;;;;;;;6.63;2.20;;;;;;;;;;5036422;28;20753;-81
2024/02/05 14:38:59;;;;;;;4.70;2.13;;;;;;;;;;5036258;28;20423;-81